createdAt,value
2022-11-23T00:00:37.831Z,64.81
2022-11-23T00:03:39.383Z,65.21
2022-11-23T00:06:41.324Z,64.82
2022-11-23T00:09:43.112Z,64.83
2022-11-23T00:12:45.140Z,64.77
2022-11-23T00:15:46.893Z,64.80
2022-11-23T00:18:48.862Z,64.89
2022-11-23T00:21:50.420Z,64.69
2022-11-23T00:24:52.053Z,65.19
2022-11-23T00:27:53.645Z,65.02
2022-11-23T00:30:55.191Z,65.12
2022-11-23T00:33:57.917Z,65.17
2022-11-23T00:36:59.422Z,65.11
2022-11-23T00:40:00.972Z,65.02
2022-11-23T00:43:02.547Z,65.11
2022-11-23T00:46:24.686Z,65.07
2022-11-23T00:49:26.274Z,65.18
2022-11-23T00:52:27.792Z,65.04
2022-11-23T00:55:29.348Z,65.04
2022-11-23T00:58:31.464Z,64.95
2022-11-23T01:01:37.056Z,65.01
2022-11-23T01:04:39.802Z,65.01
2022-11-23T01:07:41.372Z,65.21
2022-11-23T01:10:42.954Z,64.95
2022-11-23T01:13:44.740Z,65.33
2022-11-23T01:16:46.316Z,65.25
2022-11-23T01:19:47.852Z,64.99
2022-11-23T01:22:52.298Z,65.25
2022-11-23T01:25:56.976Z,64.93
2022-11-23T01:28:58.863Z,65.24
2022-11-23T01:32:00.404Z,65.24
2022-11-23T01:35:01.916Z,65.11
2022-11-23T01:38:03.604Z,65.12
2022-11-23T01:41:06.844Z,65.00
2022-11-23T01:44:44.235Z,65.26
2022-11-23T01:47:45.862Z,65.47
2022-11-23T01:50:51.787Z,64.94
2022-11-23T01:53:57.740Z,65.14
2022-11-23T01:57:04.693Z,65.15
2022-11-23T02:00:07.196Z,65.30
2022-11-23T02:03:09.746Z,65.42
2022-11-23T02:06:16.752Z,65.43
2022-11-23T02:09:19.001Z,65.33
2022-11-23T02:12:20.582Z,65.39
2022-11-23T02:15:22.107Z,65.16
2022-11-23T02:18:27.028Z,65.20
2022-11-23T02:21:28.667Z,65.30
2022-11-23T02:24:39.987Z,65.48
2022-11-23T02:27:46.772Z,65.30
2022-11-23T02:30:51.350Z,65.15
2022-11-23T02:33:52.925Z,65.33
2022-11-23T02:36:56.306Z,65.46
2022-11-23T02:40:00.225Z,65.25
2022-11-23T02:43:02.540Z,65.24
2022-11-23T02:46:05.104Z,65.32
2022-11-23T02:49:06.589Z,65.27
2022-11-23T02:52:09.662Z,65.32
2022-11-23T02:55:11.403Z,65.18
2022-11-23T02:58:13.051Z,65.49
2022-11-23T03:01:14.653Z,65.24
2022-11-23T03:04:16.227Z,65.29
2022-11-23T03:07:17.827Z,65.57
2022-11-23T03:10:20.072Z,65.50
2022-11-23T03:13:21.620Z,65.32
2022-11-23T03:16:23.269Z,65.33
2022-11-23T03:19:24.825Z,65.24
2022-11-23T03:22:26.502Z,65.55
2022-11-23T03:25:28.042Z,65.52
2022-11-23T03:28:29.856Z,65.45
2022-11-23T03:31:31.639Z,65.55
2022-11-23T03:34:33.176Z,65.36
2022-11-23T03:37:34.839Z,65.59
2022-11-23T03:40:36.384Z,65.37
2022-11-23T03:44:02.860Z,65.40
2022-11-23T03:47:04.451Z,65.58
2022-11-23T03:50:06.586Z,65.52
2022-11-23T03:53:08.424Z,65.68
2022-11-23T03:56:10.483Z,65.71
2022-11-23T03:59:12.016Z,65.38
2022-11-23T04:02:13.539Z,65.72
2022-11-23T04:05:15.191Z,65.56
2022-11-23T04:08:16.775Z,65.63
2022-11-23T04:11:18.314Z,65.81
2022-11-23T04:14:19.900Z,65.48
2022-11-23T04:17:21.426Z,65.67
2022-11-23T04:20:23.011Z,65.74
2022-11-23T04:23:24.742Z,65.66
2022-11-23T04:26:26.501Z,65.68
2022-11-23T04:29:28.037Z,65.48
2022-11-23T04:32:29.571Z,65.64
2022-11-23T04:35:31.115Z,65.65
2022-11-23T04:38:32.647Z,65.65
2022-11-23T04:41:34.349Z,65.61
2022-11-23T04:44:35.871Z,65.60
2022-11-23T04:47:37.472Z,65.65
2022-11-23T04:50:40.811Z,65.66
2022-11-23T04:53:42.592Z,65.86
2022-11-23T04:56:44.509Z,65.63
2022-11-23T04:59:46.857Z,65.64
2022-11-23T05:02:48.391Z,65.65
2022-11-23T05:05:49.998Z,65.78
2022-11-23T05:08:51.728Z,65.69
2022-11-23T05:11:53.269Z,65.86
2022-11-23T05:14:54.973Z,65.65
2022-11-23T05:18:04.617Z,65.67
2022-11-23T05:21:06.229Z,65.84
2022-11-23T05:24:07.810Z,65.73
2022-11-23T05:27:09.430Z,65.67
2022-11-23T05:30:11.469Z,65.84
2022-11-23T05:33:13.204Z,65.76
2022-11-23T05:36:14.780Z,65.84
2022-11-23T05:39:16.328Z,65.83
2022-11-23T05:42:18.330Z,65.85
2022-11-23T05:45:19.851Z,65.85
2022-11-23T05:48:21.383Z,65.74
2022-11-23T05:51:22.938Z,65.75
2022-11-23T05:54:24.489Z,65.78
2022-11-23T05:57:26.080Z,65.95
2022-11-23T06:00:27.599Z,65.77
2022-11-23T06:03:29.183Z,65.77
2022-11-23T06:06:30.683Z,65.70
2022-11-23T06:09:32.593Z,65.72
2022-11-23T06:12:34.333Z,65.73
2022-11-23T06:15:35.951Z,66.64
2022-11-23T06:18:37.520Z,66.59
2022-11-23T06:21:39.103Z,66.19
2022-11-23T06:24:41.092Z,65.85
2022-11-23T06:27:42.680Z,65.72
2022-11-23T06:30:44.227Z,65.58
2022-11-23T06:33:45.763Z,65.72
2022-11-23T06:36:47.324Z,65.58
2022-11-23T06:39:48.862Z,65.68
2022-11-23T06:42:50.422Z,65.71
2022-11-23T06:45:51.988Z,65.59
2022-11-23T06:48:53.569Z,65.54
2022-11-23T06:51:55.106Z,65.58
2022-11-23T06:54:56.864Z,65.62
2022-11-23T06:57:59.457Z,65.56
2022-11-23T07:01:02.201Z,65.62
2022-11-23T07:04:04.117Z,65.62
2022-11-23T07:07:08.048Z,65.65
2022-11-23T07:10:10.186Z,65.60
2022-11-23T07:13:12.731Z,65.63
2022-11-23T07:16:14.967Z,65.72
2022-11-23T07:19:16.530Z,65.69
2022-11-23T07:22:18.140Z,65.68
2022-11-23T07:25:19.724Z,65.71
2022-11-23T07:28:21.340Z,65.66
2022-11-23T07:31:22.904Z,65.66
2022-11-23T07:34:24.460Z,65.83
2022-11-23T07:37:25.969Z,65.67
2022-11-23T07:40:27.767Z,65.70
2022-11-23T07:43:29.726Z,65.71
2022-11-23T07:46:31.270Z,65.87
2022-11-23T07:49:33.228Z,65.70
2022-11-23T07:52:36.775Z,65.77
2022-11-23T07:55:38.376Z,65.74
2022-11-23T07:58:39.936Z,65.78
2022-11-23T08:01:41.519Z,65.86
2022-11-23T08:04:43.232Z,65.74
2022-11-23T08:07:45.270Z,65.69
2022-11-23T08:10:51.626Z,65.74
2022-11-23T08:13:55.194Z,66.19
2022-11-23T08:16:56.786Z,67.17
2022-11-23T08:19:58.311Z,66.41
2022-11-23T08:22:59.906Z,65.90
2022-11-23T08:26:06.562Z,65.91
2022-11-23T08:29:10.580Z,65.85
2022-11-23T08:32:12.726Z,65.74
2022-11-23T08:35:14.539Z,65.68
2022-11-23T08:38:16.124Z,65.82
2022-11-23T08:41:20.892Z,65.80
2022-11-23T08:44:22.444Z,65.91
2022-11-23T08:47:24.010Z,65.85
2022-11-23T08:50:25.745Z,65.90
2022-11-23T08:53:28.099Z,65.94
2022-11-23T08:56:29.832Z,65.86
2022-11-23T08:59:31.371Z,65.83
2022-11-23T09:02:33.215Z,65.83
2022-11-23T09:05:37.530Z,65.80
2022-11-23T09:08:39.220Z,65.90
2022-11-23T09:11:40.847Z,65.74
2022-11-23T09:14:42.383Z,65.72
2022-11-23T09:17:44.130Z,65.80
2022-11-23T09:20:45.644Z,65.70
2022-11-23T09:23:47.177Z,65.67
2022-11-23T09:26:48.743Z,65.66
2022-11-23T09:29:50.367Z,65.49
2022-11-23T09:32:51.955Z,65.54
2022-11-23T09:36:01.202Z,65.59
2022-11-23T09:39:02.724Z,65.57
2022-11-23T09:42:19.289Z,65.78
2022-11-23T09:45:37.927Z,65.77
2022-11-23T09:49:03.401Z,65.82
2022-11-23T09:52:15.196Z,65.96
2022-11-23T09:55:32.005Z,65.75
2022-11-23T09:58:39.710Z,65.83
2022-11-23T10:01:41.544Z,65.73
2022-11-23T10:04:44.176Z,65.90
2022-11-23T10:08:10.361Z,66.52
2022-11-23T10:11:23.027Z,66.11
2022-11-23T10:15:02.958Z,65.91
2022-11-23T10:18:25.446Z,65.76
2022-11-23T10:21:48.600Z,65.89
2022-11-23T10:24:52.466Z,65.90
2022-11-23T10:28:06.644Z,65.78
2022-11-23T10:31:21.380Z,65.78
2022-11-23T10:35:04.667Z,65.71
2022-11-23T10:38:20.134Z,65.84
2022-11-23T10:41:21.698Z,65.73
2022-11-23T10:44:39.184Z,65.65
2022-11-23T10:47:48.860Z,65.61
2022-11-23T10:50:50.448Z,65.72
2022-11-23T10:54:03.656Z,65.73
2022-11-23T10:57:28.523Z,65.64
2022-11-23T11:00:31.407Z,65.65
2022-11-23T11:03:35.226Z,65.64
2022-11-23T11:06:36.906Z,65.59
2022-11-23T11:09:38.749Z,66.12
2022-11-23T11:12:51.636Z,65.87
2022-11-23T11:15:56.002Z,65.66
2022-11-23T11:18:57.972Z,65.76
2022-11-23T11:22:01.981Z,65.59
2022-11-23T11:25:06.306Z,65.59
2022-11-23T11:28:37.496Z,65.52
2022-11-23T11:32:16.161Z,65.60
2022-11-23T11:35:39.057Z,65.55
2022-11-23T11:39:07.705Z,65.52
2022-11-23T11:42:16.631Z,65.66
2022-11-23T11:45:28.047Z,65.58
2022-11-23T11:48:46.049Z,65.67
2022-11-23T11:51:54.431Z,65.29
2022-11-23T11:55:01.339Z,65.44
2022-11-23T11:58:09.877Z,65.58
2022-11-23T12:01:38.248Z,65.54
2022-11-23T12:04:59.358Z,65.42
2022-11-23T12:08:33.123Z,65.37
2022-11-23T12:11:36.675Z,65.45
2022-11-23T12:14:38.253Z,65.32
2022-11-23T12:17:45.978Z,65.52
2022-11-23T12:21:03.434Z,65.32
2022-11-23T12:24:20.639Z,65.47
2022-11-23T12:27:52.936Z,65.42
2022-11-23T12:31:02.811Z,65.31
2022-11-23T12:34:40.852Z,65.58
2022-11-23T12:38:14.403Z,65.91
2022-11-23T12:41:51.615Z,66.47
2022-11-23T12:45:21.743Z,65.46
2022-11-23T12:48:41.996Z,65.23
2022-11-23T12:52:27.264Z,65.25
2022-11-23T12:55:37.114Z,65.13
2022-11-23T12:58:40.587Z,65.22
2022-11-23T13:01:49.592Z,65.18
2022-11-23T13:05:03.302Z,65.35
2022-11-23T13:08:23.450Z,65.39
2022-11-23T13:11:43.181Z,65.33
2022-11-23T13:15:06.330Z,65.59
2022-11-23T13:18:53.465Z,65.32
2022-11-23T13:21:55.601Z,65.15
2022-11-23T13:25:12.264Z,65.18
2022-11-23T13:28:31.994Z,65.16
2022-11-23T13:31:35.946Z,65.21
2022-11-23T13:34:46.696Z,65.29
2022-11-23T13:37:57.408Z,65.17
2022-11-23T13:40:59.050Z,65.10
2022-11-23T13:44:33.442Z,65.13
2022-11-23T13:47:38.327Z,65.07
2022-11-23T13:50:48.249Z,64.97
2022-11-23T13:54:00.646Z,65.10
2022-11-23T13:57:12.407Z,65.14
2022-11-23T14:00:46.285Z,65.13
2022-11-23T14:03:57.075Z,65.17
2022-11-23T14:06:58.644Z,64.98
2022-11-23T14:10:21.117Z,65.09
2022-11-23T14:13:28.756Z,65.39
2022-11-23T14:17:04.811Z,65.06
2022-11-23T14:20:28.325Z,64.95
2022-11-23T14:23:41.838Z,65.05
2022-11-23T14:26:51.871Z,65.02
2022-11-23T14:30:05.660Z,65.10
2022-11-23T14:33:16.387Z,64.82
2022-11-23T14:36:18.045Z,64.96
2022-11-23T14:39:57.480Z,64.92
2022-11-23T14:43:00.915Z,64.96
2022-11-23T14:46:07.120Z,64.95
2022-11-23T14:49:15.098Z,64.86
2022-11-23T14:52:21.154Z,65.05
2022-11-23T14:55:29.507Z,65.04
2022-11-23T14:58:32.897Z,64.95
2022-11-23T15:01:35.432Z,64.67
2022-11-23T15:04:55.761Z,64.64
2022-11-23T15:08:16.897Z,64.71
2022-11-23T15:11:23.019Z,64.73
2022-11-23T15:14:27.323Z,64.86
2022-11-23T15:17:29.106Z,64.79
2022-11-23T15:20:40.548Z,64.79
2022-11-23T15:23:47.687Z,64.74
2022-11-23T15:26:49.683Z,64.72
2022-11-23T15:29:57.270Z,64.80
2022-11-23T15:33:00.149Z,64.52
2022-11-23T15:36:03.029Z,64.66
2022-11-23T15:39:08.692Z,64.80
2022-11-23T15:42:22.604Z,64.81
2022-11-23T15:45:43.124Z,65.06
2022-11-23T15:48:49.514Z,64.94
2022-11-23T15:51:52.761Z,64.70
2022-11-23T15:54:54.823Z,64.55
2022-11-23T15:57:57.162Z,64.45
2022-11-23T16:01:11.537Z,64.50
2022-11-23T16:04:32.452Z,64.53
2022-11-23T16:07:49.101Z,64.48
2022-11-23T16:10:54.814Z,64.61
2022-11-23T16:14:20.609Z,64.44
2022-11-23T16:17:24.644Z,64.43
2022-11-23T16:20:27.751Z,64.48
2022-11-23T16:23:36.082Z,64.39
2022-11-23T16:26:37.682Z,64.52
2022-11-23T16:29:40.370Z,64.44
2022-11-23T16:32:41.931Z,64.52
2022-11-23T16:35:44.354Z,64.46
2022-11-23T16:38:45.964Z,64.50
2022-11-23T16:41:47.660Z,64.45
2022-11-23T16:44:49.220Z,64.51
2022-11-23T16:48:02.029Z,64.46
2022-11-23T16:51:03.804Z,64.66
2022-11-23T16:54:13.323Z,64.52
2022-11-23T16:57:23.648Z,64.65
2022-11-23T17:00:25.348Z,64.48
2022-11-23T17:03:27.009Z,64.57
2022-11-23T17:06:28.632Z,64.65
2022-11-23T17:09:30.188Z,64.46
2022-11-23T17:12:31.785Z,64.54
2022-11-23T17:15:33.370Z,64.51
2022-11-23T17:18:34.931Z,64.36
2022-11-23T17:21:36.445Z,64.39
2022-11-23T17:24:38.019Z,64.27
2022-11-23T17:27:42.033Z,64.25
2022-11-23T17:30:43.815Z,64.15
2022-11-23T17:33:45.498Z,64.24
2022-11-23T17:36:49.557Z,64.34
2022-11-23T17:39:51.264Z,64.14
2022-11-23T17:42:52.792Z,64.25
2022-11-23T17:45:54.435Z,64.27
2022-11-23T17:48:57.816Z,64.27
2022-11-23T17:51:59.359Z,64.41
2022-11-23T17:55:00.932Z,64.30
2022-11-23T17:58:02.566Z,64.42
2022-11-23T18:01:04.471Z,64.41
2022-11-23T18:04:06.065Z,64.52
2022-11-23T18:07:10.594Z,64.40
2022-11-23T18:10:15.970Z,64.28
2022-11-23T18:13:17.796Z,64.23
2022-11-23T18:16:20.448Z,64.28
2022-11-23T18:19:22.694Z,64.29
2022-11-23T18:22:24.258Z,64.18
2022-11-23T18:25:26.115Z,64.15
2022-11-23T18:28:28.596Z,64.30
2022-11-23T18:31:30.202Z,64.33
2022-11-23T18:34:31.773Z,64.11
2022-11-23T18:37:33.306Z,64.21
2022-11-23T18:40:35.087Z,64.12
2022-11-23T18:43:36.579Z,64.04
2022-11-23T18:46:38.244Z,64.31
2022-11-23T18:49:39.779Z,64.22
2022-11-23T18:52:41.323Z,64.16
2022-11-23T18:55:42.873Z,64.19
2022-11-23T18:58:45.778Z,64.27
2022-11-23T19:01:47.471Z,64.25
2022-11-23T19:04:49.117Z,64.10
2022-11-23T19:07:51.535Z,64.25
2022-11-23T19:10:53.233Z,64.30
2022-11-23T19:14:00.555Z,64.26
2022-11-23T19:17:02.202Z,64.36
2022-11-23T19:20:06.039Z,64.42
2022-11-23T19:23:07.578Z,64.39
2022-11-23T19:26:09.408Z,64.33
2022-11-23T19:29:11.141Z,64.41
2022-11-23T19:32:12.680Z,64.28
2022-11-23T19:35:14.392Z,64.11
2022-11-23T19:38:17.680Z,64.22
2022-11-23T19:41:22.961Z,64.13
2022-11-23T19:44:26.917Z,64.08
2022-11-23T19:47:29.708Z,64.01
2022-11-23T19:50:31.272Z,64.11
2022-11-23T19:53:35.128Z,64.23
2022-11-23T19:56:39.705Z,64.11
2022-11-23T19:59:41.230Z,64.11
2022-11-23T20:02:42.836Z,64.09
2022-11-23T20:06:02.314Z,64.01
2022-11-23T20:09:06.564Z,63.94
2022-11-23T20:12:08.252Z,63.97
2022-11-23T20:15:10.131Z,63.96
2022-11-23T20:18:11.703Z,63.98
2022-11-23T20:21:17.910Z,63.92
2022-11-23T20:24:19.519Z,63.92
2022-11-23T20:27:21.475Z,64.00
2022-11-23T20:30:23.001Z,63.90
2022-11-23T20:33:24.545Z,63.87
2022-11-23T20:36:31.230Z,63.82
2022-11-23T20:39:32.890Z,64.05
2022-11-23T20:42:34.455Z,63.97
2022-11-23T20:45:35.988Z,63.80
2022-11-23T20:48:38.021Z,63.89
2022-11-23T20:51:39.536Z,63.86
2022-11-23T20:54:41.107Z,63.86
2022-11-23T20:57:42.634Z,63.91
2022-11-23T21:00:48.740Z,63.74
2022-11-23T21:03:55.269Z,63.83
2022-11-23T21:06:57.031Z,63.85
2022-11-23T21:09:58.567Z,63.87
2022-11-23T21:13:29.782Z,63.85
2022-11-23T21:16:32.205Z,63.87
2022-11-23T21:19:36.096Z,63.92
2022-11-23T21:22:37.634Z,63.87
2022-11-23T21:25:39.473Z,63.92
2022-11-23T21:28:41.436Z,63.94
2022-11-23T21:31:44.670Z,64.12
2022-11-23T21:34:46.332Z,64.03
2022-11-23T21:37:49.176Z,63.93
2022-11-23T21:40:56.849Z,63.81
2022-11-23T21:43:58.496Z,63.97
2022-11-23T21:47:00.202Z,64.02
2022-11-23T21:50:01.865Z,64.08
2022-11-23T21:53:03.435Z,64.18
2022-11-23T21:56:08.398Z,64.06
2022-11-23T21:59:10.424Z,63.96
2022-11-23T22:02:12.182Z,64.20
2022-11-23T22:05:14.421Z,64.27
2022-11-23T22:08:31.396Z,64.19
2022-11-23T22:11:34.768Z,64.28
2022-11-23T22:14:36.306Z,64.22
2022-11-23T22:17:37.900Z,64.18
2022-11-23T22:20:39.523Z,64.17
2022-11-23T22:23:41.436Z,64.17
2022-11-23T22:26:44.092Z,64.19
2022-11-23T22:29:45.635Z,64.28
2022-11-23T22:32:47.500Z,64.10
2022-11-23T22:35:49.161Z,64.34
2022-11-23T22:39:01.254Z,64.09
2022-11-23T22:42:03.787Z,64.10
2022-11-23T22:45:05.746Z,64.27
2022-11-23T22:48:07.387Z,64.20
2022-11-23T22:51:14.131Z,64.27
2022-11-23T22:54:15.674Z,64.18
2022-11-23T22:57:17.226Z,64.25
2022-11-23T23:00:19.127Z,64.13
2022-11-23T23:03:20.789Z,64.21
2022-11-23T23:06:24.819Z,64.16
2022-11-23T23:09:26.435Z,64.16
2022-11-23T23:12:28.032Z,64.21
2022-11-23T23:15:29.613Z,64.15
2022-11-23T23:18:32.039Z,64.32
2022-11-23T23:21:33.610Z,64.15
2022-11-23T23:24:35.535Z,64.26
2022-11-23T23:27:37.209Z,64.19
2022-11-23T23:30:38.794Z,64.17
2022-11-23T23:33:40.884Z,64.30
2022-11-23T23:36:42.503Z,64.30
2022-11-23T23:39:44.051Z,64.31
2022-11-23T23:42:46.125Z,64.25
2022-11-23T23:45:47.740Z,64.38
2022-11-23T23:48:49.306Z,64.39
2022-11-23T23:51:51.825Z,64.40
2022-11-23T23:54:53.463Z,64.30
2022-11-23T23:57:55.027Z,64.47
